Time;durP1;ratioP1;P1;durP2;ratioP2;P2;SDS_P1;SDS_P2;PMS_P1;PMS_P2;Temp;Humidity;BMP_temperature;BMP_pressure;BME280_temperature;BME280_humidity;BME280_pressure;Samples;Min_cycle;Max_cycle;Signal;HPM_P1;HPM_P2
2022/07/25 00:02:25;;;;;;;10.30;2.50;;;22.00;66.80;;;;;;5089353;28;20052;-90
2022/07/25 00:04:51;;;;;;;4.60;2.50;;;22.00;66.90;;;;;;5086681;28;20735;-89
2022/07/25 00:07:16;;;;;;;4.07;2.47;;;22.00;67.00;;;;;;5090777;28;20016;-88
2022/07/25 00:09:42;;;;;;;7.38;2.78;;;21.90;66.90;;;;;;5093094;28;20480;-87
2022/07/25 00:12:08;;;;;;;6.05;2.40;;;21.90;67.00;;;;;;5093059;28;20024;-87
2022/07/25 00:14:33;;;;;;;9.85;2.35;;;21.80;67.60;;;;;;5092870;28;20124;-86
2022/07/25 00:16:59;;;;;;;3.60;2.55;;;21.80;67.30;;;;;;5093528;28;20016;-88
2022/07/25 00:19:25;;;;;;;3.78;2.70;;;21.80;67.40;;;;;;5092685;28;20408;-88
2022/07/25 00:21:51;;;;;;;3.67;2.63;;;21.80;67.50;;;;;;5092899;28;20020;-89
2022/07/25 00:24:17;;;;;;;5.43;2.80;;;21.80;67.20;;;;;;5093665;28;20081;-87
2022/07/25 00:26:42;;;;;;;8.85;2.78;;;21.80;67.10;;;;;;5092815;28;20023;-87
2022/07/25 00:29:08;;;;;;;4.50;2.95;;;21.80;67.00;;;;;;5092843;28;20107;-87
2022/07/25 00:31:34;;;;;;;5.18;2.58;;;21.90;66.90;;;;;;5092686;28;20059;-88
2022/07/25 00:34:00;;;;;;;6.88;3.13;;;21.90;66.80;;;;;;5093438;28;20477;-87
2022/07/25 00:36:26;;;;;;;6.78;2.60;;;21.90;66.60;;;;;;5092978;28;20039;-87
2022/07/25 00:38:51;;;;;;;3.67;2.67;;;21.90;66.60;;;;;;5094212;28;20020;-88
2022/07/25 00:41:17;;;;;;;6.90;3.13;;;21.90;66.70;;;;;;5090933;28;20512;-86
2022/07/25 00:43:45;;;;;;;6.45;3.22;;;21.90;66.70;;;;;;5092764;28;20147;-88
2022/07/25 00:46:14;;;;;;;4.63;2.40;;;21.80;66.50;;;;;;5080084;28;20056;-88
2022/07/25 00:48:40;;;;;;;5.72;2.72;;;21.90;66.50;;;;;;5072586;28;20030;-87
2022/07/25 00:51:07;;;;;;;5.05;2.88;;;21.80;66.20;;;;;;5072419;28;20112;-87
2022/07/25 00:53:34;;;;;;;5.68;2.45;;;21.90;66.50;;;;;;5079350;28;20028;-87
2022/07/25 00:56:00;;;;;;;6.53;2.58;;;21.90;66.60;;;;;;5092496;28;20050;-88
2022/07/25 00:58:25;;;;;;;4.47;2.97;;;21.80;66.60;;;;;;5092827;28;20027;-87
2022/07/25 01:00:51;;;;;;;4.43;2.90;;;21.80;66.50;;;;;;5093080;28;20391;-87
2022/07/25 01:03:17;;;;;;;5.03;2.95;;;21.70;67.00;;;;;;5092247;28;20056;-87
2022/07/25 01:05:43;;;;;;;3.67;2.50;;;21.70;67.80;;;;;;5091766;28;20131;-87
2022/07/25 01:08:09;;;;;;;5.18;2.70;;;21.60;68.40;;;;;;5092554;28;20078;-88
2022/07/25 01:10:36;;;;;;;3.63;2.70;;;21.50;68.80;;;;;;5092071;28;20499;-87
2022/07/25 01:13:01;;;;;;;7.10;3.50;;;21.30;69.20;;;;;;5091768;28;20027;-86
2022/07/25 01:15:27;;;;;;;5.80;3.17;;;21.30;70.40;;;;;;5092342;28;20404;-89
2022/07/25 01:17:53;;;;;;;4.65;2.50;;;21.20;70.10;;;;;;5085661;28;20385;-90
2022/07/25 01:20:23;;;;;;;4.10;2.63;;;21.10;70.30;;;;;;5089364;28;20032;-89
2022/07/25 01:22:49;;;;;;;4.55;2.80;;;21.00;71.00;;;;;;5088957;28;20028;-90
2022/07/25 01:25:16;;;;;;;3.47;2.35;;;20.90;71.80;;;;;;5088928;28;20020;-86
2022/07/25 01:27:42;;;;;;;4.53;2.40;;;20.80;73.00;;;;;;5072918;28;20107;-88
2022/07/25 01:30:11;;;;;;;3.50;2.45;;;20.70;73.80;;;;;;5071773;28;20028;-86
2022/07/25 01:32:37;;;;;;;5.70;2.67;;;20.50;74.10;;;;;;5073117;28;20024;-89
2022/07/25 01:35:05;;;;;;;5.80;2.65;;;20.50;74.60;;;;;;5088201;28;20504;-86
2022/07/25 01:37:31;;;;;;;4.53;2.85;;;20.40;75.10;;;;;;5088163;28;20032;-86
2022/07/25 01:39:56;;;;;;;4.03;3.10;;;20.30;75.40;;;;;;5072659;28;20028;-87
2022/07/25 01:42:22;;;;;;;5.07;2.95;;;20.30;75.30;;;;;;5072262;28;20118;-87
2022/07/25 01:44:48;;;;;;;4.55;2.78;;;20.30;75.70;;;;;;5087885;28;20493;-86
2022/07/25 01:47:15;;;;;;;5.47;3.08;;;20.30;75.80;;;;;;5091164;28;20074;-86
2022/07/25 01:49:42;;;;;;;4.38;2.88;;;20.30;75.60;;;;;;5091388;28;20036;-88
2022/07/25 01:52:08;;;;;;;9.38;2.90;;;20.40;75.50;;;;;;5089869;28;20028;-85
2022/07/25 01:54:33;;;;;;;6.95;2.50;;;20.40;75.50;;;;;;5091263;28;20028;-87
2022/07/25 01:56:59;;;;;;;5.72;2.45;;;20.40;75.70;;;;;;5090750;28;20061;-88
2022/07/25 01:59:25;;;;;;;4.40;2.70;;;20.30;76.40;;;;;;5090953;28;20024;-87
2022/07/25 02:01:50;;;;;;;6.97;2.70;;;20.30;76.90;;;;;;5091361;28;20093;-88
2022/07/25 02:04:16;;;;;;;4.63;3.03;;;20.20;76.90;;;;;;5091074;28;20047;-86
2022/07/25 02:06:42;;;;;;;3.83;2.45;;;20.20;77.00;;;;;;5091013;28;20035;-87
2022/07/25 02:09:08;;;;;;;3.30;2.40;;;20.20;77.10;;;;;;5091024;28;20027;-87
2022/07/25 02:11:34;;;;;;;5.25;2.78;;;20.20;77.70;;;;;;5092378;28;20098;-86
2022/07/25 02:14:00;;;;;;;7.85;2.80;;;20.20;77.10;;;;;;5090018;28;20027;-84
2022/07/25 02:16:26;;;;;;;4.18;2.53;;;20.20;77.40;;;;;;5091974;28;20089;-85
2022/07/25 02:18:52;;;;;;;3.92;3.10;;;20.20;77.20;;;;;;5090237;28;20031;-89
2022/07/25 02:21:17;;;;;;;9.55;2.75;;;20.20;77.40;;;;;;5090926;28;20066;-88
2022/07/25 02:23:44;;;;;;;6.50;2.80;;;20.20;78.00;;;;;;5090800;28;20400;-89
2022/07/25 02:26:11;;;;;;;8.23;3.05;;;20.20;78.20;;;;;;5092057;28;20024;-87
2022/07/25 02:28:36;;;;;;;5.63;2.80;;;20.10;78.40;;;;;;5090527;28;20064;-88
2022/07/25 02:31:02;;;;;;;4.25;2.72;;;20.20;78.80;;;;;;5091064;28;20055;-89
2022/07/25 02:33:28;;;;;;;4.13;2.50;;;20.00;79.10;;;;;;5091189;28;20024;-88
2022/07/25 02:35:54;;;;;;;3.95;2.70;;;20.00;79.70;;;;;;5080126;28;20023;-87
2022/07/25 02:38:20;;;;;;;5.25;2.53;;;19.90;80.30;;;;;;5070418;28;20056;-90
2022/07/25 02:40:50;;;;;;;2.80;2.33;;;19.80;80.80;;;;;;5072263;28;20028;-88
2022/07/25 02:43:17;;;;;;;4.07;2.50;;;19.80;81.20;;;;;;5089676;28;20531;-89
2022/07/25 02:45:43;;;;;;;7.30;2.95;;;19.70;82.10;;;;;;5089284;28;20024;-89
2022/07/25 02:48:08;;;;;;;7.13;3.15;;;19.70;82.20;;;;;;5092238;28;20425;-89
2022/07/25 02:50:34;;;;;;;4.43;3.30;;;19.70;82.90;;;;;;5092196;28;20027;-88
2022/07/25 02:53:00;;;;;;;5.45;2.65;;;19.60;83.20;;;;;;5091787;28;20430;-87
2022/07/25 02:55:26;;;;;;;6.43;2.92;;;19.60;84.80;;;;;;5091308;28;20039;-88
2022/07/25 02:57:52;;;;;;;5.25;3.08;;;19.50;85.00;;;;;;5091233;28;20028;-86
2022/07/25 03:00:18;;;;;;;6.65;3.58;;;19.40;86.00;;;;;;5090613;28;20036;-87
2022/07/25 03:02:44;;;;;;;5.28;2.88;;;19.30;86.00;;;;;;5090238;28;20539;-87
2022/07/25 03:05:12;;;;;;;5.13;3.08;;;19.30;86.80;;;;;;5091177;28;20020;-87
2022/07/25 03:07:38;;;;;;;6.35;2.85;;;19.30;87.40;;;;;;5090949;28;20059;-87
2022/07/25 03:10:06;;;;;;;4.88;3.40;;;19.30;88.30;;;;;;5091704;28;20031;-87
2022/07/25 03:12:32;;;;;;;3.60;2.65;;;19.20;88.70;;;;;;5091294;28;20116;-88
2022/07/25 03:14:58;;;;;;;6.97;3.35;;;19.20;89.60;;;;;;5092409;28;20052;-87
2022/07/25 03:17:25;;;;;;;6.78;3.10;;;19.20;90.30;;;;;;5091680;28;20115;-85
2022/07/25 03:19:50;;;;;;;6.00;2.83;;;19.10;90.50;;;;;;5091972;28;20028;-88
2022/07/25 03:22:16;;;;;;;3.58;2.60;;;19.10;91.00;;;;;;5089838;28;20027;-85
2022/07/25 03:24:42;;;;;;;6.22;2.67;;;19.10;91.30;;;;;;5089342;28;20047;-86
2022/07/25 03:27:08;;;;;;;4.63;2.92;;;19.00;91.60;;;;;;5079633;28;20728;-86
2022/07/25 03:29:34;;;;;;;3.55;2.58;;;19.00;92.30;;;;;;5079438;28;20029;-87
2022/07/25 03:32:00;;;;;;;6.50;3.03;;;19.00;92.80;;;;;;5068732;28;20111;-87
2022/07/25 03:34:26;;;;;;;6.80;2.45;;;19.00;93.50;;;;;;5084678;28;20501;-86
2022/07/25 03:36:51;;;;;;;11.32;3.53;;;19.00;94.40;;;;;;5090383;28;20028;-84
2022/07/25 03:39:17;;;;;;;4.90;2.55;;;19.00;94.80;;;;;;5090450;28;20035;-88
2022/07/25 03:41:44;;;;;;;14.10;3.08;;;18.90;94.90;;;;;;5093404;28;20492;-86
2022/07/25 03:44:09;;;;;;;5.70;2.60;;;19.00;95.30;;;;;;5093915;28;20043;-88
2022/07/25 03:46:35;;;;;;;5.07;2.88;;;19.00;95.60;;;;;;5093640;28;20016;-88
2022/07/25 03:49:01;;;;;;;5.70;3.28;;;19.00;95.60;;;;;;5090453;28;20111;-86
2022/07/25 03:51:27;;;;;;;6.65;3.17;;;19.10;95.90;;;;;;5076029;28;20108;-85
2022/07/25 03:54:01;;;;;;;4.47;2.83;;;19.00;96.20;;;;;;5087403;28;20063;-86
2022/07/25 03:56:39;;;;;;;5.80;2.70;;;19.10;96.50;;;;;;5091977;28;20489;-86
2022/07/25 03:59:08;;;;;;;7.35;3.33;;;19.10;96.80;;;;;;5084905;28;20027;-89
2022/07/25 04:01:34;;;;;;;3.75;2.95;;;19.10;97.00;;;;;;5084610;28;20025;-87
2022/07/25 04:04:01;;;;;;;4.30;2.80;;;19.20;97.10;;;;;;5072842;28;20115;-88
2022/07/25 04:06:27;;;;;;;8.82;3.17;;;19.30;97.30;;;;;;5078823;28;20035;-85
2022/07/25 04:08:53;;;;;;;5.90;3.45;;;19.30;97.50;;;;;;5077219;28;20028;-88
2022/07/25 04:11:19;;;;;;;4.15;2.85;;;19.50;97.70;;;;;;5093170;28;20089;-87
2022/07/25 04:13:45;;;;;;;7.45;2.60;;;19.50;97.70;;;;;;5094733;28;20036;-88
2022/07/25 04:16:12;;;;;;;7.35;2.40;;;19.70;96.80;;;;;;5093454;28;20111;-89
2022/07/25 04:18:37;;;;;;;4.57;2.45;;;19.80;96.70;;;;;;5082807;28;20039;-89
2022/07/25 04:21:04;;;;;;;4.10;3.05;;;19.90;97.00;;;;;;5076815;28;20024;-86
2022/07/25 04:23:30;;;;;;;3.60;2.67;;;20.00;96.80;;;;;;5093206;28;20070;-87
2022/07/25 04:25:56;;;;;;;6.13;2.97;;;20.20;96.80;;;;;;5076388;28;20221;-89
2022/07/25 04:28:23;;;;;;;9.88;3.60;;;20.30;96.70;;;;;;5073057;28;20043;-88
2022/07/25 04:30:49;;;;;;;5.18;2.70;;;20.50;96.20;;;;;;5084616;28;20485;-87
2022/07/25 04:33:15;;;;;;;4.10;2.75;;;20.70;95.80;;;;;;5083396;28;20021;-89
2022/07/25 04:35:41;;;;;;;4.25;2.55;;;21.00;94.80;;;;;;5072916;28;20040;-87
2022/07/25 04:38:07;;;;;;;5.90;2.83;;;21.20;94.70;;;;;;5085700;28;20055;-87
2022/07/25 04:40:33;;;;;;;3.90;2.50;;;21.20;94.70;;;;;;5076987;28;20106;-88
2022/07/25 04:42:58;;;;;;;5.55;2.55;;;21.30;94.40;;;;;;5090176;28;20036;-87
2022/07/25 04:45:24;;;;;;;3.67;2.80;;;21.40;93.90;;;;;;5081270;28;20173;-87
2022/07/25 04:47:50;;;;;;;8.13;2.95;;;21.60;93.70;;;;;;5079633;28;20012;-90
2022/07/25 04:50:15;;;;;;;7.80;3.88;;;21.70;93.60;;;;;;5077980;28;20031;-86
2022/07/25 04:52:41;;;;;;;6.00;3.05;;;21.90;93.30;;;;;;5092483;28;20063;-87
2022/07/25 04:55:07;;;;;;;8.15;3.42;;;22.00;92.80;;;;;;5095529;28;20024;-86
2022/07/25 04:57:33;;;;;;;4.70;2.80;;;22.10;92.50;;;;;;5091304;28;20477;-87
2022/07/25 04:59:59;;;;;;;4.53;2.92;;;22.20;92.60;;;;;;5092034;28;20031;-86
2022/07/25 05:02:25;;;;;;;5.28;3.63;;;22.30;91.90;;;;;;5092100;28;20024;-86
2022/07/25 05:04:51;;;;;;;5.30;3.42;;;22.50;91.90;;;;;;5091540;28;20032;-86
2022/07/25 05:07:17;;;;;;;3.88;2.70;;;22.70;91.80;;;;;;5092227;28;20062;-87
2022/07/25 05:09:42;;;;;;;9.30;2.70;;;22.80;91.50;;;;;;5091633;28;20032;-87
2022/07/25 05:12:08;;;;;;;4.88;2.67;;;22.90;91.10;;;;;;5092530;28;20020;-88
2022/07/25 05:14:34;;;;;;;4.20;2.38;;;23.10;90.90;;;;;;5092317;28;20034;-87
2022/07/25 05:16:59;;;;;;;4.75;2.50;;;23.30;90.40;;;;;;5092189;28;20069;-87
2022/07/25 05:19:25;;;;;;;4.45;2.80;;;23.50;90.10;;;;;;5091708;28;20024;-87
2022/07/25 05:21:51;;;;;;;4.38;2.70;;;23.70;88.30;;;;;;5092402;28;20035;-87
2022/07/25 05:24:17;;;;;;;3.78;2.20;;;24.00;88.10;;;;;;5093624;28;20048;-86
2022/07/25 05:26:42;;;;;;;3.38;2.00;;;24.40;86.40;;;;;;5090969;28;20486;-86
2022/07/25 05:29:09;;;;;;;4.00;1.98;;;24.70;84.30;;;;;;5093067;28;20078;-85
2022/07/25 05:31:35;;;;;;;5.65;2.25;;;24.90;82.10;;;;;;5091454;28;20024;-86
2022/07/25 05:34:01;;;;;;;4.53;2.45;;;25.10;81.10;;;;;;5092665;28;20515;-87
2022/07/25 05:36:26;;;;;;;3.53;2.10;;;25.30;79.10;;;;;;5091160;28;20033;-87
2022/07/25 05:38:53;;;;;;;4.28;1.63;;;25.50;76.80;;;;;;5091911;28;20400;-86
2022/07/25 05:41:19;;;;;;;3.60;1.60;;;25.60;73.40;;;;;;5090962;28;20028;-86
2022/07/25 05:43:46;;;;;;;2.40;1.27;;;25.60;70.80;;;;;;5091609;28;20471;-86
2022/07/25 05:46:12;;;;;;;5.93;1.70;;;25.70;69.10;;;;;;5076398;28;20032;-87
2022/07/25 05:48:38;;;;;;;7.53;2.15;;;25.90;66.90;;;;;;5072047;28;20024;-87
2022/07/25 05:51:03;;;;;;;4.75;1.38;;;26.00;66.20;;;;;;5070829;28;20031;-87
2022/07/25 05:53:29;;;;;;;6.68;1.70;;;26.00;65.10;;;;;;5079387;28;20034;-86
2022/07/25 05:55:55;;;;;;;7.50;1.20;;;26.20;65.10;;;;;;5091595;28;20035;-88
2022/07/25 05:58:20;;;;;;;5.97;1.30;;;26.50;62.90;;;;;;5090985;28;20488;-88
2022/07/25 06:00:46;;;;;;;4.03;1.10;;;27.10;60.40;;;;;;5090607;28;20024;-88
2022/07/25 06:03:12;;;;;;;5.35;1.25;;;27.80;59.00;;;;;;5090210;28;20052;-86
2022/07/25 06:05:37;;;;;;;2.65;1.40;;;28.80;57.00;;;;;;5090492;28;20024;-88
2022/07/25 06:08:03;;;;;;;7.80;1.10;;;29.60;54.10;;;;;;5090984;28;20119;-87
2022/07/25 06:10:29;;;;;;;4.68;1.27;;;30.00;51.80;;;;;;5091024;28;20024;-87
2022/07/25 06:12:54;;;;;;;3.83;1.30;;;30.30;50.80;;;;;;5090947;28;20088;-88
2022/07/25 06:15:20;;;;;;;2.95;1.15;;;30.40;50.00;;;;;;5091203;28;20846;-87
2022/07/25 06:17:46;;;;;;;2.28;1.23;;;31.10;48.60;;;;;;5090440;28;20038;-87
2022/07/25 06:20:11;;;;;;;8.80;1.10;;;31.90;46.30;;;;;;5091029;28;20417;-88
2022/07/25 06:22:37;;;;;;;1.88;0.80;;;32.70;43.80;;;;;;5090595;28;20054;-87
2022/07/25 06:25:03;;;;;;;3.70;1.42;;;33.30;41.60;;;;;;5090610;28;20051;-86
2022/07/25 06:27:29;;;;;;;4.90;1.13;;;33.70;40.40;;;;;;5090633;28;20024;-87
2022/07/25 06:29:55;;;;;;;6.22;1.30;;;34.10;38.40;;;;;;5090803;28;20040;-86
2022/07/25 06:32:20;;;;;;;3.90;1.33;;;34.20;37.90;;;;;;5089792;28;20024;-86
2022/07/25 06:34:46;;;;;;;6.13;1.08;;;34.20;37.30;;;;;;5089974;28;20034;-86
2022/07/25 06:37:12;;;;;;;3.97;1.40;;;34.50;36.50;;;;;;5090342;28;20058;-86
2022/07/25 06:39:37;;;;;;;3.88;1.13;;;34.80;35.80;;;;;;5090870;28;20064;-87
2022/07/25 06:42:03;;;;;;;8.18;1.35;;;35.30;36.00;;;;;;5078762;28;20293;-88
2022/07/25 06:44:33;;;;;;;3.03;1.08;;;35.70;35.00;;;;;;5071159;28;20340;-89
2022/07/25 06:47:01;;;;;;;5.35;1.30;;;36.10;34.70;;;;;;5089953;28;20048;-89
2022/07/25 06:49:27;;;;;;;3.95;1.48;;;36.40;33.10;;;;;;5092519;28;20055;-87
2022/07/25 06:51:52;;;;;;;5.03;1.48;;;36.20;32.80;;;;;;5088808;28;20515;-88
2022/07/25 06:54:18;;;;;;;3.40;1.63;;;36.20;32.00;;;;;;5087601;28;20032;-88
2022/07/25 06:56:44;;;;;;;2.65;1.20;;;36.00;32.50;;;;;;5089740;28;20034;-89
2022/07/25 06:59:10;;;;;;;4.10;1.20;;;35.70;33.00;;;;;;5091969;28;20028;-88
2022/07/25 07:01:36;;;;;;;3.95;1.63;;;35.70;33.30;;;;;;5080762;28;20027;-87
2022/07/25 07:04:02;;;;;;;5.63;1.40;;;35.90;32.20;;;;;;5069982;28;20052;-89
2022/07/25 07:06:28;;;;;;;2.40;1.02;;;35.80;31.70;;;;;;5075474;28;20024;-87
2022/07/25 07:08:54;;;;;;;7.05;1.60;;;35.90;32.40;;;;;;5090028;28;20502;-87
2022/07/25 07:11:20;;;;;;;4.30;1.30;;;36.10;32.20;;;;;;5090533;28;20028;-88
2022/07/25 07:13:46;;;;;;;4.43;1.30;;;36.10;32.40;;;;;;5090261;28;20073;-87
2022/07/25 07:16:11;;;;;;;3.50;1.45;;;36.80;31.90;;;;;;5089891;28;20028;-89
2022/07/25 07:18:37;;;;;;;8.45;1.42;;;36.90;31.00;;;;;;5089871;28;20024;-88
2022/07/25 07:21:04;;;;;;;2.50;1.20;;;37.20;30.40;;;;;;5090675;28;20016;-87
2022/07/25 07:23:30;;;;;;;2.67;1.17;;;36.70;31.20;;;;;;5089277;28;20067;-91
2022/07/25 07:25:56;;;;;;;2.08;1.33;;;37.00;31.60;;;;;;5090250;28;20021;-88
2022/07/25 07:28:22;;;;;;;6.72;1.20;;;37.50;30.20;;;;;;5090601;28;20032;-88
2022/07/25 07:30:47;;;;;;;4.60;1.00;;;37.60;30.00;;;;;;5090755;28;20020;-88
2022/07/25 07:33:13;;;;;;;3.05;1.35;;;37.60;29.30;;;;;;5093878;28;20032;-89
2022/07/25 07:35:40;;;;;;;3.40;1.42;;;37.50;29.30;;;;;;5091547;28;20047;-89
2022/07/25 07:38:05;;;;;;;2.42;1.08;;;37.60;29.00;;;;;;5090243;28;20275;-88
2022/07/25 07:40:31;;;;;;;3.63;1.50;;;36.80;30.00;;;;;;5090538;28;20031;-88
2022/07/25 07:42:59;;;;;;;5.85;1.38;;;36.30;30.20;;;;;;5089375;28;20107;-87
2022/07/25 07:45:26;;;;;;;5.97;1.73;;;36.40;31.10;;;;;;5089460;28;20054;-88
2022/07/25 07:47:53;;;;;;;7.15;1.58;;;36.60;30.30;;;;;;5089561;28;20031;-86
2022/07/25 07:50:21;;;;;;;5.90;1.13;;;36.80;30.40;;;;;;5089448;28;20046;-88
2022/07/25 07:52:48;;;;;;;3.78;1.35;;;37.40;30.00;;;;;;5089659;28;20278;-85
2022/07/25 07:57:59;;;;;;;4.80;1.70;;;36.90;30.40;;;;;;5091515;28;20492;-88
2022/07/25 08:00:34;;;;;;;3.28;1.40;;;37.40;29.40;;;;;;5089651;28;20059;-88
2022/07/25 08:03:00;;;;;;;8.35;1.90;;;37.00;30.30;;;;;;5089796;28;20197;-88
2022/07/25 08:05:29;;;;;;;8.02;1.33;;;36.90;29.60;;;;;;5089728;28;20020;-87
2022/07/25 08:07:56;;;;;;;6.47;1.63;;;36.80;30.30;;;;;;5089357;28;20378;-87
2022/07/25 08:10:24;;;;;;;10.15;1.40;;;37.20;30.50;;;;;;5089319;28;20039;-87
2022/07/25 08:12:50;;;;;;;5.90;2.15;;;37.30;31.00;;;;;;5089795;28;20058;-87
2022/07/25 08:15:17;;;;;;;3.75;1.40;;;37.50;31.10;;;;;;5090644;28;20438;-88
2022/07/25 08:17:45;;;;;;;3.45;1.30;;;37.90;29.90;;;;;;5090369;28;20020;-88
2022/07/25 08:20:11;;;;;;;11.02;1.60;;;38.30;30.00;;;;;;5091033;28;20024;-87
2022/07/25 08:22:44;;;;;;;10.07;1.85;;;38.20;29.80;;;;;;5089945;28;20059;-89
2022/07/25 08:25:15;;;;;;;4.57;1.92;;;38.40;29.60;;;;;;5089070;28;20032;-88
2022/07/25 08:27:41;;;;;;;4.18;1.45;;;38.30;29.80;;;;;;5092033;28;20395;-88
2022/07/25 08:30:08;;;;;;;5.25;1.73;;;38.50;29.50;;;;;;5093348;28;20032;-87
2022/07/25 08:32:44;;;;;;;5.63;1.98;;;38.40;28.70;;;;;;5091195;28;20030;-87
2022/07/25 08:35:09;;;;;;;5.72;1.77;;;38.20;28.90;;;;;;5092641;28;20471;-89
2022/07/25 08:37:35;;;;;;;7.22;1.60;;;37.90;29.30;;;;;;5092682;28;20051;-88
2022/07/25 08:40:01;;;;;;;6.10;1.55;;;38.00;30.00;;;;;;5094110;28;20059;-87
2022/07/25 08:42:26;;;;;;;11.68;2.20;;;38.10;29.70;;;;;;5092516;28;20107;-87
2022/07/25 08:44:58;;;;;;;7.30;1.60;;;38.10;29.70;;;;;;5092487;28;20036;-87
2022/07/25 08:47:24;;;;;;;4.53;1.55;;;38.20;29.40;;;;;;5092349;28;20024;-89
2022/07/25 08:49:50;;;;;;;4.97;1.50;;;38.40;29.60;;;;;;5093167;28;20384;-88
2022/07/25 08:52:17;;;;;;;5.28;1.50;;;38.40;30.10;;;;;;5092199;28;20016;-88
2022/07/25 08:54:44;;;;;;;11.45;1.58;;;38.90;29.90;;;;;;5092030;28;20051;-88
2022/07/25 08:57:10;;;;;;;5.05;1.42;;;38.80;29.20;;;;;;5092109;28;20028;-88
2022/07/25 08:59:36;;;;;;;6.03;2.15;;;38.80;28.90;;;;;;5093200;28;20028;-88
2022/07/25 09:02:05;;;;;;;3.45;1.60;;;39.00;27.80;;;;;;5092039;28;20524;-88
2022/07/25 09:04:33;;;;;;;8.02;2.10;;;38.70;28.50;;;;;;5092828;28;20067;-88
2022/07/25 09:07:00;;;;;;;7.85;2.35;;;38.70;29.00;;;;;;5092151;28;20086;-88
2022/07/25 09:09:37;;;;;;;3.15;1.60;;;38.50;29.00;;;;;;5083128;28;20095;-87
2022/07/25 09:12:04;;;;;;;5.43;2.20;;;38.50;28.90;;;;;;5072206;28;20140;-88
2022/07/25 09:14:39;;;;;;;5.47;1.88;;;38.90;28.90;;;;;;5072441;28;20071;-87
2022/07/25 09:17:05;;;;;;;7.60;1.77;;;38.80;28.60;;;;;;5077240;28;20027;-88
2022/07/25 09:19:32;;;;;;;5.25;1.70;;;38.70;30.30;;;;;;5091641;28;20070;-87
2022/07/25 09:22:06;;;;;;;2.42;1.77;;;38.80;28.90;;;;;;5092563;28;20384;-90
2022/07/25 09:24:32;;;;;;;5.35;2.10;;;38.60;29.20;;;;;;5091494;28;20077;-87
2022/07/25 09:27:00;;;;;;;7.60;1.90;;;38.70;29.20;;;;;;5092007;28;20035;-87
2022/07/25 09:29:29;;;;;;;3.47;2.15;;;38.70;29.00;;;;;;5091625;28;20073;-88
2022/07/25 09:31:56;;;;;;;7.13;1.88;;;38.80;28.90;;;;;;5091154;28;20400;-88
2022/07/25 09:34:39;;;;;;;4.85;2.17;;;39.30;28.80;;;;;;5091434;28;20067;-87
2022/07/25 09:37:13;;;;;;;3.63;1.45;;;39.40;27.50;;;;;;5090847;28;20075;-88
2022/07/25 09:39:45;;;;;;;3.38;1.38;;;39.30;28.10;;;;;;5091682;28;20427;-88
2022/07/25 09:42:15;;;;;;;3.55;1.88;;;39.50;28.60;;;;;;5089982;28;20590;-87
2022/07/25 09:44:41;;;;;;;4.07;1.92;;;39.70;27.90;;;;;;5090828;28;20065;-88
2022/07/25 09:47:12;;;;;;;3.25;1.77;;;39.60;28.00;;;;;;5091781;28;20062;-87
2022/07/25 09:49:42;;;;;;;2.95;1.70;;;39.40;27.90;;;;;;5090887;28;20070;-87
2022/07/25 09:52:09;;;;;;;5.20;1.55;;;39.30;27.80;;;;;;5091656;28;20044;-87
2022/07/25 09:54:35;;;;;;;7.72;2.17;;;39.50;28.00;;;;;;5092208;28;20060;-87
2022/07/25 09:57:00;;;;;;;5.10;1.73;;;39.20;28.00;;;;;;5091042;28;20066;-88
2022/07/25 09:59:26;;;;;;;3.45;1.70;;;39.10;28.00;;;;;;5091420;28;20103;-88
2022/07/25 10:02:05;;;;;;;5.28;2.20;;;39.30;28.10;;;;;;5091863;28;20093;-88
2022/07/25 10:05:01;;;;;;;7.68;1.60;;;39.50;28.20;;;;;;5091917;28;20040;-88
2022/07/25 10:07:27;;;;;;;3.65;1.70;;;39.70;28.00;;;;;;5090756;28;20031;-88
2022/07/25 10:09:54;;;;;;;5.30;1.95;;;39.50;28.10;;;;;;5091289;28;20032;-88
2022/07/25 10:12:22;;;;;;;4.63;1.48;;;39.30;27.80;;;;;;5092292;28;20023;-88
2022/07/25 10:15:11;;;;;;;3.60;1.50;;;38.80;28.00;;;;;;5091563;28;20591;-88
2022/07/25 10:17:39;;;;;;;3.20;1.55;;;37.40;29.00;;;;;;5088247;28;20028;-88
2022/07/25 10:20:07;;;;;;;3.33;1.83;;;36.70;29.40;;;;;;5088943;28;20032;-87
2022/07/25 10:22:36;;;;;;;5.03;1.92;;;36.10;30.00;;;;;;5073845;28;20020;-87
2022/07/25 10:25:11;;;;;;;4.95;1.48;;;35.90;30.70;;;;;;5088758;28;20039;-85
2022/07/25 10:27:42;;;;;;;3.17;1.58;;;35.70;30.00;;;;;;5088843;28;20391;-86
2022/07/25 10:30:19;;;;;;;7.55;1.80;;;35.10;31.10;;;;;;5090430;28;20024;-85
2022/07/25 10:32:57;;;;;;;3.85;1.55;;;34.60;31.30;;;;;;5088049;28;20020;-85
2022/07/25 10:35:24;;;;;;;3.40;1.90;;;34.40;32.20;;;;;;5078613;28;20459;-86
2022/07/25 10:37:51;;;;;;;4.13;2.10;;;34.30;32.40;;;;;;5069008;28;20029;-85
2022/07/25 10:40:40;;;;;;;6.40;1.30;;;34.30;32.10;;;;;;5068703;28;20039;-85
2022/07/25 10:43:11;;;;;;;5.57;1.75;;;34.40;32.80;;;;;;5068481;28;20032;-86
2022/07/25 10:45:51;;;;;;;4.70;1.90;;;34.20;32.60;;;;;;5075757;28;20047;-86
2022/07/25 10:48:25;;;;;;;5.43;1.70;;;34.20;33.20;;;;;;5088044;28;20111;-87
2022/07/25 10:50:55;;;;;;;6.45;1.67;;;34.20;32.90;;;;;;5087819;28;20111;-87
2022/07/25 10:53:42;;;;;;;5.05;1.95;;;34.20;32.80;;;;;;5088466;28;20024;-86
2022/07/25 10:56:28;;;;;;;2.90;1.70;;;34.10;32.40;;;;;;5081496;28;20127;-86
2022/07/25 10:58:55;;;;;;;;;;;34.00;32.00;;;;;;5088209;28;20040;-88
2022/07/25 11:01:29;;;;;;;4.10;2.05;;;33.70;32.70;;;;;;5089121;28;19904;-86
2022/07/25 11:03:57;;;;;;;3.97;1.65;;;33.60;33.00;;;;;;5085280;28;20529;-86
2022/07/25 11:06:35;;;;;;;3.33;1.55;;;33.60;32.90;;;;;;5088628;28;20297;-87
2022/07/25 11:09:02;;;;;;;3.28;1.75;;;33.50;33.40;;;;;;5087933;28;20073;-86
2022/07/25 11:11:39;;;;;;;3.75;1.40;;;33.40;32.60;;;;;;5109714;28;20034;-85
2022/07/25 11:14:17;;;;;;;2.10;1.63;;;33.10;32.90;;;;;;5107693;28;20373;-85
2022/07/25 11:16:44;;;;;;;4.65;1.77;;;33.10;33.80;;;;;;5103995;28;20031;-86
2022/07/25 11:19:17;;;;;;;4.70;1.38;;;33.10;34.40;;;;;;5087658;28;20549;-88
2022/07/25 11:21:57;;;;;;;3.63;1.70;;;33.20;34.30;;;;;;5098878;28;20019;-86
2022/07/25 11:24:41;;;;;;;4.35;2.13;;;33.30;34.20;;;;;;5095948;28;20119;-86
2022/07/25 11:27:09;;;;;;;9.68;1.67;;;33.40;34.40;;;;;;5105011;28;20039;-88
2022/07/25 11:29:37;;;;;;;3.90;1.85;;;33.40;33.80;;;;;;5093975;28;20024;-88
2022/07/25 11:32:05;;;;;;;3.30;1.52;;;33.40;34.00;;;;;;5078655;28;20570;-87
2022/07/25 11:34:43;;;;;;;2.60;1.50;;;33.40;34.30;;;;;;5078935;28;20035;-87
2022/07/25 11:37:10;;;;;;;5.32;1.77;;;33.50;33.20;;;;;;5078870;28;20020;-87
2022/07/25 11:39:39;;;;;;;5.45;1.30;;;33.40;33.70;;;;;;5067954;28;20055;-88
2022/07/25 11:42:16;;;;;;;3.92;1.48;;;33.40;33.70;;;;;;5081203;28;20027;-90
2022/07/25 11:44:47;;;;;;;2.60;1.63;;;33.30;33.40;;;;;;5089863;28;20036;-86
2022/07/25 11:47:30;;;;;;;4.95;1.92;;;33.30;33.80;;;;;;5089545;28;20073;-87
2022/07/25 11:49:59;;;;;;;9.13;2.05;;;33.40;34.20;;;;;;5097714;28;20028;-87
2022/07/25 11:52:32;;;;;;;3.22;1.70;;;33.40;33.40;;;;;;5093924;28;20024;-89
2022/07/25 11:55:07;;;;;;;7.13;1.58;;;33.40;33.70;;;;;;5088756;28;20027;-87
2022/07/25 11:57:38;;;;;;;2.85;1.80;;;33.40;32.70;;;;;;5087453;28;20110;-87
2022/07/25 12:00:10;;;;;;;2.35;1.65;;;33.30;34.10;;;;;;5087705;28;20032;-88
2022/07/25 12:02:36;;;;;;;4.80;1.70;;;33.40;34.00;;;;;;5090065;28;20020;-88
2022/07/25 12:05:03;;;;;;;4.47;1.75;;;33.40;32.70;;;;;;5092760;28;20039;-87
2022/07/25 12:07:40;;;;;;;8.45;2.08;;;33.40;32.90;;;;;;5090460;28;20085;-89
2022/07/25 12:10:15;;;;;;;2.53;1.77;;;33.40;33.10;;;;;;5076188;28;20033;-89
2022/07/25 12:12:55;;;;;;;3.22;2.03;;;33.30;32.80;;;;;;5071564;28;20393;-88
2022/07/25 12:15:24;;;;;;;3.47;1.63;;;33.30;33.00;;;;;;5070830;28;20040;-88
2022/07/25 12:17:51;;;;;;;4.53;1.30;;;33.20;32.70;;;;;;5082670;28;20062;-87
2022/07/25 12:20:26;;;;;;;7.30;2.38;;;33.20;32.80;;;;;;5090648;28;20036;-87
2022/07/25 12:23:03;;;;;;;4.55;1.75;;;33.30;31.60;;;;;;5091348;28;20092;-91
2022/07/25 12:25:34;;;;;;;8.68;1.58;;;33.10;32.60;;;;;;5083601;28;20059;-88
2022/07/25 12:28:00;;;;;;;4.55;1.67;;;33.00;32.40;;;;;;5066510;28;20020;-87
2022/07/25 12:30:28;;;;;;;2.45;1.52;;;33.00;31.80;;;;;;5072357;28;20036;-89
2022/07/25 12:32:55;;;;;;;6.38;1.98;;;33.00;32.60;;;;;;5073195;28;20029;-86
2022/07/25 12:35:21;;;;;;;3.72;1.63;;;33.10;33.10;;;;;;5072955;28;20025;-90
2022/07/25 12:37:47;;;;;;;2.63;1.52;;;33.10;31.70;;;;;;5072115;28;20442;-88
2022/07/25 12:40:14;;;;;;;5.07;1.63;;;33.10;31.80;;;;;;5071316;28;20559;-89
2022/07/25 12:42:40;;;;;;;6.72;2.35;;;33.20;32.50;;;;;;5089270;28;20039;-89
2022/07/25 12:45:07;;;;;;;3.13;1.83;;;33.20;32.10;;;;;;5091179;28;20032;-89
2022/07/25 12:47:33;;;;;;;2.67;1.52;;;33.30;32.10;;;;;;5092482;28;20047;-89
2022/07/25 12:49:58;;;;;;;3.70;1.20;;;33.30;32.10;;;;;;5084168;28;20064;-88
2022/07/25 12:52:24;;;;;;;4.82;1.73;;;33.40;32.40;;;;;;5088052;28;20058;-88
2022/07/25 12:54:50;;;;;;;4.18;1.70;;;33.50;32.70;;;;;;5071493;28;20109;-90